createdAt,value
2023-04-27T00:01:11.188Z,14.28
2023-04-27T00:04:19.620Z,14.67
2023-04-27T00:07:23.860Z,14.72
2023-04-27T00:10:28.003Z,14.83
2023-04-27T00:13:36.726Z,14.83
2023-04-27T00:16:42.200Z,14.05
2023-04-27T00:19:50.238Z,14.11
2023-04-27T00:23:04.901Z,13.90
2023-04-27T00:26:10.652Z,14.31
2023-04-27T00:29:18.734Z,14.68
2023-04-27T00:32:24.064Z,14.81
2023-04-27T00:35:35.749Z,14.43
2023-04-27T00:38:42.626Z,14.02
2023-04-27T00:41:51.520Z,13.59
2023-04-27T00:44:55.855Z,13.64
2023-04-27T00:48:04.016Z,13.67
2023-04-27T00:51:09.493Z,13.22
2023-04-27T00:54:48.739Z,13.06
2023-04-27T00:57:57.303Z,13.63
2023-04-27T01:01:18.248Z,13.45
2023-04-27T01:11:36.642Z,13.69
2023-04-27T01:14:40.751Z,13.57
2023-04-27T01:17:44.888Z,12.79
2023-04-27T01:20:49.436Z,12.53
2023-04-27T01:23:54.750Z,12.82
2023-04-27T01:27:03.553Z,12.49
2023-04-27T01:30:08.487Z,13.05
2023-04-27T01:33:17.004Z,12.71
2023-04-27T01:36:25.650Z,12.66
2023-04-27T01:43:07.259Z,12.86
2023-04-27T01:46:15.327Z,13.14
2023-04-27T01:49:19.505Z,13.08
2023-04-27T01:52:53.681Z,13.26
2023-04-27T01:55:58.241Z,13.06
2023-04-27T01:59:06.443Z,12.73
2023-04-27T02:02:17.664Z,12.92
2023-04-27T02:05:34.780Z,12.90
2023-04-27T02:12:27.306Z,13.16
2023-04-27T02:15:32.983Z,13.19
2023-04-27T02:18:51.285Z,13.10
2023-04-27T02:22:02.853Z,13.02
2023-04-27T02:25:13.888Z,12.66
2023-04-27T02:28:18.276Z,12.34
2023-04-27T02:31:25.035Z,11.68
2023-04-27T02:37:53.170Z,12.14
2023-04-27T02:40:58.593Z,11.85
2023-04-27T02:44:19.185Z,12.19
2023-04-27T02:47:23.791Z,11.71
2023-04-27T02:50:32.350Z,11.45
2023-04-27T02:53:41.056Z,11.45
2023-04-27T02:56:59.761Z,11.70
2023-04-27T03:00:06.541Z,11.71
2023-04-27T03:03:12.918Z,11.67
2023-04-27T03:06:23.302Z,11.58
2023-04-27T03:09:49.164Z,11.95
2023-04-27T03:19:58.766Z,12.07
2023-04-27T03:38:34.588Z,11.93
2023-04-27T03:40:20.361Z,11.31
2023-04-27T03:44:18.324Z,11.07
2023-04-27T03:47:41.674Z,11.16
2023-04-27T03:50:52.927Z,10.67
2023-04-27T03:57:42.718Z,11.43
2023-04-27T04:01:27.972Z,11.21
2023-04-27T04:07:15.158Z,11.65
2023-04-27T04:13:45.847Z,11.07
2023-04-27T04:44:35.564Z,10.23
2023-04-27T04:48:03.669Z,11.11
2023-04-27T05:09:05.440Z,11.15
2023-04-27T05:28:31.509Z,11.84
2023-04-27T05:31:36.814Z,12.21
2023-04-27T05:34:40.720Z,12.06
2023-04-27T05:37:47.318Z,12.17
2023-04-27T05:40:51.603Z,12.48
2023-04-27T05:44:02.018Z,12.25
2023-04-27T05:47:07.898Z,11.85
2023-04-27T05:50:12.260Z,11.76
2023-04-27T05:53:24.467Z,12.01
2023-04-27T05:56:34.470Z,12.21
2023-04-27T05:59:38.763Z,12.39
2023-04-27T06:02:43.840Z,12.17
2023-04-27T06:05:48.258Z,12.12
2023-04-27T06:08:54.970Z,11.96
2023-04-27T06:11:59.048Z,12.70
2023-04-27T06:15:03.013Z,13.05
2023-04-27T06:18:06.823Z,12.82
2023-04-27T06:21:13.700Z,13.05
2023-04-27T06:24:18.106Z,13.31
2023-04-27T06:27:21.964Z,13.80
2023-04-27T06:30:29.901Z,14.20
2023-04-27T06:33:33.842Z,14.21
2023-04-27T06:36:37.829Z,14.44
2023-04-27T06:39:41.789Z,13.56
2023-04-27T06:42:45.770Z,12.98
2023-04-27T06:45:49.563Z,13.30
2023-04-27T06:48:56.486Z,14.10
2023-04-27T06:52:00.530Z,14.71
2023-04-27T06:55:04.614Z,15.10
2023-04-27T06:58:08.686Z,15.14
2023-04-27T07:01:12.766Z,15.09
2023-04-27T07:04:16.866Z,15.35
2023-04-27T07:07:21.116Z,14.64
2023-04-27T07:10:25.029Z,14.71
2023-04-27T07:13:29.174Z,14.85
2023-04-27T07:16:32.826Z,14.25
2023-04-27T07:19:38.107Z,14.88
2023-04-27T07:22:42.934Z,14.70
2023-04-27T07:25:46.673Z,15.25
2023-04-27T07:28:50.912Z,15.00
2023-04-27T07:31:54.865Z,15.24
2023-04-27T07:34:58.941Z,14.24
2023-04-27T07:38:02.879Z,13.95
2023-04-27T07:41:06.860Z,14.57
2023-04-27T07:44:10.592Z,14.61
2023-04-27T07:47:14.673Z,14.51
2023-04-27T07:50:18.495Z,14.41
2023-04-27T07:53:22.656Z,15.11
2023-04-27T07:56:26.207Z,14.26
2023-04-27T07:59:30.266Z,14.05
2023-04-27T08:02:35.383Z,14.67
2023-04-27T08:05:39.547Z,14.67
2023-04-27T08:08:43.859Z,14.47
2023-04-27T08:11:47.853Z,14.50
2023-04-27T08:14:51.723Z,14.11
2023-04-27T08:17:55.664Z,14.07
2023-04-27T08:20:59.445Z,14.53
2023-04-27T08:24:03.380Z,14.25
2023-04-27T08:27:07.117Z,14.27
2023-04-27T08:30:12.681Z,14.90
2023-04-27T08:33:18.604Z,15.39
2023-04-27T08:36:22.691Z,15.52
2023-04-27T08:39:26.953Z,15.86
2023-04-27T08:42:30.822Z,16.43
2023-04-27T08:45:35.017Z,15.51
2023-04-27T08:48:38.902Z,15.36
2023-04-27T08:51:42.828Z,15.86
2023-04-27T08:54:46.736Z,16.38
2023-04-27T08:57:50.759Z,15.87
2023-04-27T09:00:54.875Z,16.32
2023-04-27T09:03:59.129Z,16.80
2023-04-27T09:07:03.278Z,16.76
2023-04-27T09:10:07.202Z,16.98
2023-04-27T09:13:10.924Z,16.89
2023-04-27T09:16:15.065Z,16.71
2023-04-27T09:19:19.379Z,16.08
2023-04-27T09:22:24.892Z,16.10
2023-04-27T09:25:30.371Z,16.49
2023-04-27T09:28:34.364Z,16.43
2023-04-27T09:31:38.206Z,16.86
2023-04-27T09:34:41.967Z,17.21
2023-04-27T09:37:46.026Z,17.38
2023-04-27T09:40:49.676Z,17.30
2023-04-27T09:43:55.219Z,17.01
2023-04-27T09:47:01.471Z,17.55
2023-04-27T09:50:07.039Z,17.67
2023-04-27T09:53:13.317Z,16.32
2023-04-27T09:56:17.115Z,17.05
2023-04-27T09:59:25.755Z,17.28
2023-04-27T10:02:30.074Z,17.23
2023-04-27T10:05:34.389Z,17.51
2023-04-27T10:08:38.181Z,17.20
2023-04-27T10:11:42.230Z,17.57
2023-04-27T10:14:46.731Z,17.28
2023-04-27T10:17:51.018Z,17.26
2023-04-27T10:20:55.478Z,17.04
2023-04-27T10:24:00.323Z,17.20
2023-04-27T10:27:04.226Z,17.07
2023-04-27T10:30:08.439Z,16.91
2023-04-27T10:33:12.816Z,17.20
2023-04-27T10:36:19.412Z,17.14
2023-04-27T10:39:35.953Z,17.23
2023-04-27T10:42:48.008Z,17.18
2023-04-27T10:45:51.927Z,17.11
2023-04-27T10:48:56.586Z,16.79
2023-04-27T10:52:00.450Z,16.74
2023-04-27T10:55:06.319Z,16.47
2023-04-27T10:58:10.699Z,16.39
2023-04-27T11:01:27.981Z,16.95
2023-04-27T11:04:33.777Z,16.98
2023-04-27T11:07:37.813Z,17.06
2023-04-27T11:10:44.133Z,17.11
2023-04-27T11:13:48.137Z,17.46
2023-04-27T11:16:51.858Z,17.49
2023-04-27T11:19:56.028Z,17.49
2023-04-27T11:23:00.242Z,17.57
2023-04-27T11:26:04.251Z,17.88
2023-04-27T11:29:08.428Z,17.71
2023-04-27T11:32:12.126Z,17.39
2023-04-27T11:35:15.941Z,17.53
2023-04-27T11:38:20.194Z,18.27
2023-04-27T11:41:26.111Z,18.15
2023-04-27T11:44:29.787Z,18.70
2023-04-27T11:47:33.773Z,18.78
2023-04-27T11:57:25.354Z,19.45
2023-04-27T12:04:00.010Z,19.30
2023-04-27T12:07:13.034Z,18.76
2023-04-27T12:10:27.001Z,18.38
2023-04-27T16:26:40.373Z,21.06
2023-04-27T16:29:44.788Z,21.12
2023-04-27T16:32:50.064Z,21.13
2023-04-27T16:35:57.227Z,21.17
2023-04-27T17:01:52.203Z,20.64
2023-04-27T17:08:36.191Z,20.59
2023-04-27T17:15:10.443Z,20.60
2023-04-27T17:18:25.301Z,20.43
2023-04-27T18:43:32.479Z,19.06
2023-04-27T18:46:40.267Z,19.30
2023-04-27T18:49:44.805Z,19.31
2023-04-27T18:56:31.996Z,19.10
2023-04-27T19:02:58.461Z,19.40
2023-04-27T19:06:02.936Z,19.46
2023-04-27T19:09:07.072Z,19.31
2023-04-27T19:12:14.506Z,19.10
2023-04-27T19:15:18.470Z,19.25
2023-04-27T19:18:22.567Z,19.14
2023-04-27T19:21:26.305Z,19.17
2023-04-27T19:24:30.356Z,19.29
2023-04-27T19:27:40.236Z,19.28
2023-04-27T19:30:46.231Z,19.29
2023-04-27T19:33:55.206Z,19.26
2023-04-27T19:36:59.524Z,19.23
2023-04-27T19:40:05.203Z,19.33
2023-04-27T19:43:14.784Z,18.99
2023-04-27T19:46:20.411Z,19.09
2023-04-27T19:49:26.847Z,18.73
2023-04-27T19:52:30.889Z,18.61
2023-04-27T19:55:36.790Z,18.35
2023-04-27T19:58:42.071Z,18.52
2023-04-27T20:01:46.055Z,18.18
2023-04-27T20:04:52.763Z,18.27
2023-04-27T20:08:15.755Z,18.07
2023-04-27T20:11:19.754Z,18.33
2023-04-27T20:14:23.698Z,18.56
2023-04-27T20:17:27.515Z,18.62
2023-04-27T20:20:31.344Z,18.39
2023-04-27T20:23:35.147Z,18.56
2023-04-27T20:26:39.182Z,18.43
2023-04-27T20:29:42.832Z,18.44
2023-04-27T20:32:47.031Z,18.22
2023-04-27T20:35:50.854Z,17.54
2023-04-27T20:38:55.037Z,17.90
2023-04-27T20:41:58.825Z,17.93
2023-04-27T20:45:02.632Z,18.10
2023-04-27T20:48:06.564Z,17.66
2023-04-27T20:51:11.800Z,17.70
2023-04-27T20:54:15.874Z,17.83
2023-04-27T20:57:20.527Z,17.80
2023-04-27T21:00:27.278Z,17.72
2023-04-27T21:03:31.356Z,17.75
2023-04-27T21:06:35.668Z,17.54
2023-04-27T21:09:39.779Z,17.40
2023-04-27T21:12:43.779Z,17.48
2023-04-27T21:15:47.796Z,17.62
2023-04-27T21:18:53.018Z,17.42
2023-04-27T21:21:59.890Z,17.53
2023-04-27T21:25:03.691Z,17.61
2023-04-27T21:28:07.961Z,17.56
2023-04-27T21:31:11.712Z,17.54
2023-04-27T21:34:15.865Z,17.17
2023-04-27T21:37:20.476Z,17.27
2023-04-27T21:40:24.249Z,17.08
2023-04-27T21:43:28.247Z,17.13
2023-04-27T21:46:32.239Z,17.04
2023-04-27T21:49:37.227Z,17.25
2023-04-27T21:52:41.175Z,16.89
2023-04-27T21:55:45.348Z,16.53
2023-04-27T21:58:49.355Z,16.57
2023-04-27T22:01:53.096Z,16.31
2023-04-27T22:04:57.239Z,16.81
2023-04-27T22:08:01.118Z,17.03
2023-04-27T22:11:05.167Z,17.08
2023-04-27T22:14:09.306Z,17.02
2023-04-27T22:17:18.953Z,17.25
2023-04-27T22:20:22.916Z,17.29
2023-04-27T22:23:26.903Z,17.29
2023-04-27T22:26:31.014Z,16.76
2023-04-27T22:29:35.092Z,17.02
2023-04-27T22:32:39.092Z,16.67
2023-04-27T22:35:42.946Z,16.85
2023-04-27T22:38:47.448Z,16.82
2023-04-27T22:41:51.472Z,16.84
2023-04-27T22:44:55.651Z,16.83
2023-04-27T22:47:59.871Z,16.84
2023-04-27T22:51:04.882Z,16.89
2023-04-27T22:54:08.784Z,16.98
2023-04-27T22:57:12.979Z,17.11
2023-04-27T23:00:17.126Z,16.99
2023-04-27T23:03:21.506Z,16.89
2023-04-27T23:06:26.562Z,16.85
2023-04-27T23:09:30.487Z,16.80
2023-04-27T23:12:34.579Z,16.80
2023-04-27T23:15:40.055Z,16.85
2023-04-27T23:18:43.978Z,16.94
2023-04-27T23:21:48.058Z,17.04
2023-04-27T23:24:51.869Z,17.20
2023-04-27T23:27:56.142Z,17.34
2023-04-27T23:31:00.281Z,17.49
2023-04-27T23:34:04.154Z,17.46
2023-04-27T23:37:08.017Z,17.51
2023-04-27T23:40:12.055Z,17.56
2023-04-27T23:43:15.996Z,17.47
2023-04-27T23:46:19.871Z,17.14
2023-04-27T23:49:23.746Z,16.73
2023-04-27T23:52:27.547Z,16.80
2023-04-27T23:55:31.842Z,17.07
2023-04-27T23:58:35.925Z,17.04
